I75

Osceola Municipal Airport

Osceola, Iowa, USA
METAR KI75 092115Z AUTO 00000KT 7SM CLR 01/M05 A3032 RMK AO2 T00091048
Observed Flight Rules
Dec-9 @ 21:15 UTC (25 minutes ago) Visual Flight Rules
Visibility Clouds
7 miles
  • Clear skies
Temperatures Readings
Current 1°C / 34°F
Dewpoint -5°C / 23°F
Humidity 65%
Altimeter 30.32" Hg
Pressure 1027 hPa
Elevation 339
METAR KI75 092115Z AUTO 00000KT 7SM CLR 01/M05 A3032 RMK AO2 T00091048
Observed Flight Rules
Dec-9 @ 21:15 UTC
(25 minutes ago)
VFR
Clouds
  • Clear skies
Temperature Dewpoint
1°C / 34°F -5°C / 23°F
Humidity Altimeter Pressure
65% 30.32" Hg 1027 hPa